Time;durP1;ratioP1;P1;durP2;ratioP2;P2;SDS_P1;SDS_P2;PMS_P1;PMS_P2;Temp;Humidity;BMP_temperature;BMP_pressure;BME280_temperature;BME280_humidity;BME280_pressure;Samples;Min_cycle;Max_cycle;Signal;HPM_P1;HPM_P2
2024/04/09 00:00:44;;;;;;;9.55;2.13;;;15.10;99.90;;;;;;5528818;25;20015;-76
2024/04/09 00:03:10;;;;;;;5.80;1.90;;;15.10;99.90;;;;;;5528870;25;20318;-76
2024/04/09 00:05:39;;;;;;;6.55;2.53;;;15.00;99.90;;;;;;5528700;25;20008;-76
2024/04/09 00:08:07;;;;;;;4.47;1.90;;;15.00;99.90;;;;;;5526442;25;19997;-76
2024/04/09 00:10:34;;;;;;;7.97;2.90;;;14.90;99.90;;;;;;5526778;26;20004;-76
2024/04/09 00:13:00;;;;;;;7.38;2.55;;;14.90;99.90;;;;;;5528481;25;20218;-76
2024/04/09 00:15:29;;;;;;;10.20;2.00;;;14.80;99.90;;;;;;5528478;25;19993;-76
2024/04/09 00:18:11;;;;;;;6.80;1.75;;;14.80;99.90;;;;;;5526222;26;19989;-76
2024/04/09 00:20:37;;;;;;;4.78;1.80;;;14.80;99.90;;;;;;5528000;25;19998;-76
2024/04/09 00:23:04;;;;;;;5.20;0.63;;;14.80;99.90;;;;;;5526478;25;20427;-76
2024/04/09 00:25:30;;;;;;;2.13;0.10;;;14.80;99.90;;;;;;5528518;25;19997;-76
2024/04/09 00:27:55;;;;;;;4.10;0.20;;;14.70;99.90;;;;;;5528219;25;19997;-77
2024/04/09 00:30:22;;;;;;;2.95;0.00;;;14.70;99.90;;;;;;5528401;25;20332;-78
2024/04/09 00:32:51;;;;;;;1.65;0.17;;;14.70;99.90;;;;;;5528251;25;20413;-77
2024/04/09 00:35:23;;;;;;;7.00;0.20;;;14.70;99.90;;;;;;5528314;25;20029;-77
2024/04/09 00:37:56;;;;;;;0.28;0.10;;;14.70;99.90;;;;;;5528066;25;19994;-75
2024/04/09 00:40:29;;;;;;;1.73;0.20;;;14.70;99.90;;;;;;5526407;25;20005;-75
2024/04/09 00:42:57;;;;;;;2.15;0.00;;;14.70;99.90;;;;;;5528176;25;19994;-77
2024/04/09 00:45:23;;;;;;;0.00;0.00;;;14.70;99.90;;;;;;5526264;26;20000;-77
2024/04/09 00:47:50;;;;;;;6.10;0.00;;;14.70;99.90;;;;;;5527875;25;20250;-77
2024/04/09 00:50:18;;;;;;;3.15;0.00;;;14.70;99.90;;;;;;5528641;25;20559;-77
2024/04/09 00:52:45;;;;;;;1.05;0.00;;;14.60;99.90;;;;;;5527878;25;19997;-78
2024/04/09 00:55:14;;;;;;;0.13;0.00;;;14.60;99.90;;;;;;5525686;26;19990;-75
2024/04/09 00:57:41;;;;;;;0.35;0.00;;;14.60;99.90;;;;;;5527495;25;20008;-75
2024/04/09 01:00:12;;;;;;;1.65;0.00;;;14.70;99.90;;;;;;5527340;25;19993;-76
2024/04/09 01:02:38;;;;;;;2.03;0.28;;;14.70;99.90;;;;;;5527760;25;20004;-77
2024/04/09 01:05:05;;;;;;;3.97;0.10;;;14.60;99.90;;;;;;5527977;25;19997;-77
2024/04/09 01:07:32;;;;;;;1.25;0.00;;;14.60;99.90;;;;;;5525521;25;19997;-77
2024/04/09 01:09:58;;;;;;;3.10;0.00;;;14.60;99.90;;;;;;5527680;25;19998;-77
2024/04/09 01:12:23;;;;;;;1.35;0.30;;;14.50;99.90;;;;;;5527387;25;20068;-77
2024/04/09 01:14:49;;;;;;;3.70;0.25;;;14.50;99.90;;;;;;5527698;25;20448;-77
2024/04/09 01:17:15;;;;;;;1.75;0.00;;;14.40;99.90;;;;;;5527804;25;20030;-77
2024/04/09 01:19:41;;;;;;;3.03;0.00;;;14.40;99.90;;;;;;5527253;25;20004;-77
2024/04/09 01:22:07;;;;;;;5.03;0.00;;;14.40;99.90;;;;;;5525551;26;20328;-77
2024/04/09 01:24:34;;;;;;;7.10;0.22;;;14.40;99.90;;;;;;5527294;25;19997;-77
2024/04/09 01:27:01;;;;;;;3.92;0.00;;;14.30;99.90;;;;;;5527361;25;19993;-77
2024/04/09 01:29:26;;;;;;;2.38;0.00;;;14.30;99.90;;;;;;5525160;26;20009;-76
2024/04/09 01:31:52;;;;;;;6.10;0.80;;;14.30;99.90;;;;;;5524325;26;20013;-76
2024/04/09 01:34:21;;;;;;;1.00;0.10;;;14.30;99.90;;;;;;5525360;26;20005;-75
2024/04/09 01:36:48;;;;;;;4.32;0.00;;;14.30;99.90;;;;;;5525361;25;19993;-77
2024/04/09 01:39:15;;;;;;;3.30;0.08;;;14.30;99.90;;;;;;5527169;25;19994;-77
2024/04/09 01:41:41;;;;;;;2.20;0.00;;;14.20;99.90;;;;;;5526607;25;20345;-77
2024/04/09 01:44:07;;;;;;;0.75;0.03;;;14.20;99.90;;;;;;5527149;25;20044;-77
2024/04/09 01:46:33;;;;;;;5.85;0.63;;;14.20;99.90;;;;;;5526840;25;19994;-76
2024/04/09 01:48:59;;;;;;;0.70;0.00;;;14.20;99.90;;;;;;5525028;25;20364;-76
2024/04/09 01:51:26;;;;;;;3.03;0.10;;;14.20;99.90;;;;;;5527116;25;20026;-76
2024/04/09 01:53:53;;;;;;;0.30;0.13;;;14.10;99.90;;;;;;5526733;25;20005;-77
2024/04/09 01:56:18;;;;;;;0.57;0.00;;;14.20;99.90;;;;;;5526626;25;20059;-77
2024/04/09 01:58:46;;;;;;;0.47;0.00;;;;;;;;;;5526559;25;20075;-76
2024/04/09 02:01:14;;;;;;;1.70;0.10;;;14.10;99.90;;;;;;5526857;26;20033;-77
2024/04/09 02:03:40;;;;;;;2.80;0.00;;;14.10;99.90;;;;;;5526645;25;20456;-77
2024/04/09 02:06:06;;;;;;;3.67;0.25;;;14.20;99.90;;;;;;5526635;25;20554;-77
2024/04/09 02:08:33;;;;;;;2.38;0.08;;;14.10;99.90;;;;;;5526543;26;20038;-76
2024/04/09 02:11:05;;;;;;;0.90;0.00;;;14.10;99.90;;;;;;5526611;25;20002;-76
2024/04/09 02:13:31;;;;;;;4.97;0.10;;;14.10;99.90;;;;;;5526521;25;20061;-77
2024/04/09 02:16:02;;;;;;;1.42;0.25;;;14.10;99.90;;;;;;5526169;25;19997;-77
2024/04/09 02:18:28;;;;;;;2.05;0.15;;;14.10;99.90;;;;;;5524315;26;20338;-77
2024/04/09 02:20:53;;;;;;;2.97;0.55;;;14.10;99.90;;;;;;5525954;25;20027;-77
2024/04/09 02:23:19;;;;;;;5.78;0.10;;;14.10;99.90;;;;;;5524195;26;20001;-77
2024/04/09 02:25:45;;;;;;;9.68;0.20;;;14.00;99.90;;;;;;5526254;25;19993;-77
2024/04/09 02:28:11;;;;;;;2.72;0.00;;;14.00;99.90;;;;;;5526017;25;20001;-76
2024/04/09 02:30:37;;;;;;;3.75;0.20;;;14.00;99.90;;;;;;5524492;26;20452;-77
2024/04/09 02:33:03;;;;;;;1.42;0.10;;;14.00;99.90;;;;;;5526372;25;20417;-77
2024/04/09 02:35:29;;;;;;;3.22;0.20;;;13.90;99.90;;;;;;5526213;25;20008;-77
2024/04/09 02:37:54;;;;;;;3.17;0.40;;;13.90;99.90;;;;;;5525838;25;20340;-77
2024/04/09 02:40:20;;;;;;;8.07;0.35;;;14.00;99.90;;;;;;5525841;25;20001;-76
2024/04/09 02:42:47;;;;;;;0.65;0.20;;;14.00;99.90;;;;;;5524849;26;19997;-77
2024/04/09 02:45:13;;;;;;;0.85;0.20;;;13.90;99.90;;;;;;5527557;25;20000;-77
2024/04/09 02:47:39;;;;;;;0.75;0.00;;;13.80;99.90;;;;;;5527913;26;19989;-74
2024/04/09 02:50:06;;;;;;;0.32;0.00;;;13.80;99.90;;;;;;5529836;25;20061;-74
2024/04/09 02:52:32;;;;;;;0.82;0.03;;;13.70;99.90;;;;;;5529705;25;20005;-76
2024/04/09 02:54:58;;;;;;;1.55;0.00;;;13.50;99.90;;;;;;5529547;25;20444;-77
2024/04/09 02:57:24;;;;;;;1.55;0.00;;;13.50;99.90;;;;;;5529844;25;20004;-77
2024/04/09 02:59:53;;;;;;;0.85;0.00;;;13.40;99.90;;;;;;5527587;26;20065;-77
2024/04/09 03:02:19;;;;;;;3.42;0.13;;;13.30;99.90;;;;;;5527890;25;19997;-77
2024/04/09 03:04:45;;;;;;;4.13;0.55;;;13.30;99.90;;;;;;5527198;25;20445;-77
2024/04/09 03:07:11;;;;;;;7.75;0.13;;;13.30;99.90;;;;;;5528939;25;19997;-75
2024/04/09 03:09:37;;;;;;;2.53;0.17;;;13.30;99.90;;;;;;5528936;25;20065;-77
2024/04/09 03:12:03;;;;;;;1.55;0.00;;;13.20;99.90;;;;;;5530022;25;20336;-77
2024/04/09 03:14:29;;;;;;;1.75;0.00;;;13.20;99.90;;;;;;5529211;25;19997;-77
2024/04/09 03:16:55;;;;;;;5.43;0.47;;;13.20;99.90;;;;;;5529121;25;20003;-76
2024/04/09 03:19:20;;;;;;;1.65;0.00;;;13.20;99.90;;;;;;5528647;25;20012;-76
2024/04/09 03:21:46;;;;;;;4.15;0.20;;;13.10;99.90;;;;;;5527209;25;19994;-74
2024/04/09 03:24:12;;;;;;;3.05;0.00;;;13.10;99.90;;;;;;5529552;25;19997;-75
2024/04/09 03:26:38;;;;;;;5.70;0.70;;;13.00;99.90;;;;;;5528981;25;20074;-75
2024/04/09 03:29:03;;;;;;;3.60;0.20;;;13.00;99.90;;;;;;5529193;25;20009;-75
2024/04/09 03:31:29;;;;;;;1.45;0.35;;;13.00;99.90;;;;;;5528968;25;20006;-75
2024/04/09 03:33:55;;;;;;;7.53;0.20;;;12.90;99.90;;;;;;5527031;25;20004;-75
2024/04/09 03:36:21;;;;;;;3.90;0.00;;;12.90;99.90;;;;;;5529061;25;20005;-75
2024/04/09 03:38:46;;;;;;;2.30;0.00;;;12.90;99.90;;;;;;5528518;25;20008;-75
2024/04/09 03:41:13;;;;;;;6.10;0.17;;;12.90;99.90;;;;;;5526705;25;20004;-75
2024/04/09 03:43:39;;;;;;;3.58;0.32;;;12.90;99.90;;;;;;5529103;25;20526;-75
2024/04/09 03:46:12;;;;;;;4.22;0.10;;;12.90;99.90;;;;;;5528486;25;20005;-75
2024/04/09 03:48:38;;;;;;;5.38;0.00;;;12.90;99.90;;;;;;5528418;25;20105;-75
2024/04/09 03:51:05;;;;;;;3.55;0.10;;;12.90;99.90;;;;;;5529079;25;20038;-75
2024/04/09 03:53:31;;;;;;;2.03;0.00;;;12.90;99.90;;;;;;5528017;25;19997;-75
2024/04/09 03:56:04;;;;;;;5.10;0.75;;;12.90;99.90;;;;;;5526728;25;20008;-75
2024/04/09 03:58:31;;;;;;;4.13;0.00;;;12.80;99.90;;;;;;5528622;25;20360;-75
2024/04/09 04:00:59;;;;;;;1.90;0.10;;;12.80;99.90;;;;;;5526723;25;19989;-75
2024/04/09 04:03:29;;;;;;;1.45;0.10;;;12.80;99.90;;;;;;5526518;25;20001;-75
2024/04/09 04:05:59;;;;;;;3.38;0.10;;;12.90;99.90;;;;;;5528251;25;20005;-74
2024/04/09 04:08:28;;;;;;;2.63;0.20;;;12.90;99.90;;;;;;5527656;25;19998;-75
2024/04/09 04:11:01;;;;;;;3.38;0.30;;;12.90;99.90;;;;;;5526294;26;20461;-75
2024/04/09 04:13:29;;;;;;;1.67;0.38;;;12.80;99.90;;;;;;5526376;25;19993;-75
2024/04/09 04:16:04;;;;;;;2.95;0.22;;;12.90;99.90;;;;;;5528583;25;19997;-75
2024/04/09 04:18:49;;;;;;;6.63;0.20;;;12.80;99.90;;;;;;5528552;25;19997;-75
2024/04/09 04:21:18;;;;;;;8.35;1.25;;;12.80;99.90;;;;;;5526661;25;20005;-75
2024/04/09 04:23:46;;;;;;;1.60;0.80;;;12.80;99.90;;;;;;5526302;26;20366;-75
2024/04/09 04:26:14;;;;;;;5.40;0.63;;;12.90;99.90;;;;;;5528149;25;19993;-75
2024/04/09 04:28:43;;;;;;;5.73;1.10;;;12.90;99.90;;;;;;5528336;25;20021;-75
2024/04/09 04:31:13;;;;;;;6.70;1.23;;;12.90;99.90;;;;;;5526014;26;20345;-77
2024/04/09 04:33:41;;;;;;;3.15;0.98;;;12.90;99.90;;;;;;5528251;25;20005;-75
2024/04/09 04:36:08;;;;;;;6.43;1.98;;;12.90;99.90;;;;;;5528036;25;19997;-75
2024/04/09 04:38:34;;;;;;;3.97;1.40;;;12.80;99.90;;;;;;5528140;25;19997;-75
2024/04/09 04:41:01;;;;;;;5.25;1.50;;;12.80;99.90;;;;;;5528267;25;19997;-75
2024/04/09 04:43:27;;;;;;;7.68;1.50;;;12.80;99.90;;;;;;5525920;26;19997;-75
2024/04/09 04:45:54;;;;;;;8.05;0.70;;;12.80;99.90;;;;;;5525886;26;19998;-75
2024/04/09 04:48:20;;;;;;;8.18;0.65;;;12.80;99.90;;;;;;5527780;25;20001;-75
2024/04/09 04:50:46;;;;;;;3.40;0.40;;;12.70;99.90;;;;;;5527836;25;19997;-77
2024/04/09 04:53:13;;;;;;;2.22;0.10;;;12.70;99.90;;;;;;5527626;25;20390;-75
2024/04/09 04:55:38;;;;;;;2.97;0.25;;;12.60;99.90;;;;;;5527863;25;20333;-77
2024/04/09 04:58:04;;;;;;;4.10;0.28;;;12.60;99.90;;;;;;5525205;25;20066;-77
2024/04/09 05:00:30;;;;;;;3.13;0.70;;;12.60;99.90;;;;;;5527367;25;20005;-74
2024/04/09 05:02:56;;;;;;;4.38;0.08;;;12.50;99.90;;;;;;5525841;26;20039;-75
2024/04/09 05:05:22;;;;;;;4.15;0.60;;;12.50;99.90;;;;;;5526594;25;20030;-75
2024/04/09 05:07:48;;;;;;;10.50;0.28;;;12.30;99.90;;;;;;5527569;25;20005;-77
2024/04/09 05:10:15;;;;;;;14.68;0.57;;;12.30;99.90;;;;;;5527782;25;19994;-74
2024/04/09 05:12:44;;;;;;;5.43;0.88;;;12.20;99.90;;;;;;5525865;25;20009;-75
2024/04/09 05:15:09;;;;;;;;;;;12.20;99.90;;;;;;5528640;25;20001;-75
2024/04/09 05:17:36;;;;;;;4.45;0.10;;;12.10;99.90;;;;;;5525423;26;19923;-75
2024/04/09 05:20:03;;;;;;;3.45;0.17;;;12.10;99.90;;;;;;5525984;25;20012;-76
2024/04/09 05:22:30;;;;;;;7.68;0.10;;;12.00;99.90;;;;;;5525513;25;19990;-77
2024/04/09 05:24:55;;;;;;;0.47;0.00;;;12.00;99.90;;;;;;5525405;26;20364;-76
2024/04/09 05:27:21;;;;;;;1.65;0.20;;;11.90;99.90;;;;;;5525980;26;20001;-77
2024/04/09 05:29:49;;;;;;;5.53;1.02;;;11.90;99.90;;;;;;5528450;25;19993;-77
2024/04/09 05:32:15;;;;;;;1.88;0.10;;;11.80;99.90;;;;;;5527368;25;20005;-77
2024/04/09 05:34:40;;;;;;;3.95;0.28;;;11.80;99.90;;;;;;5528059;25;19998;-77
2024/04/09 05:37:06;;;;;;;4.70;0.17;;;11.80;99.90;;;;;;5527728;25;20001;-77
2024/04/09 05:39:32;;;;;;;5.22;0.00;;;11.70;99.90;;;;;;5527521;25;20043;-77
2024/04/09 05:41:57;;;;;;;3.65;0.00;;;11.70;99.90;;;;;;5527739;25;20003;-77
2024/04/09 05:44:23;;;;;;;3.80;0.10;;;11.60;99.90;;;;;;5527392;25;19994;-77
2024/04/09 05:46:49;;;;;;;2.50;0.00;;;11.70;99.90;;;;;;5527431;25;20001;-77
2024/04/09 05:49:17;;;;;;;5.53;0.10;;;11.60;99.90;;;;;;5525475;25;19994;-78
2024/04/09 05:51:43;;;;;;;1.67;0.20;;;11.60;99.90;;;;;;5527989;25;20453;-77
2024/04/09 05:54:09;;;;;;;3.13;0.00;;;11.60;99.90;;;;;;5525052;26;20005;-77
2024/04/09 05:56:36;;;;;;;4.22;0.10;;;11.50;99.90;;;;;;5526715;25;20469;-76
2024/04/09 05:59:02;;;;;;;7.10;0.65;;;11.50;99.90;;;;;;5524606;26;20008;-76
2024/04/09 06:01:28;;;;;;;5.68;0.57;;;11.50;99.90;;;;;;5527155;26;19989;-80
2024/04/09 06:03:53;;;;;;;4.97;0.00;;;11.40;99.90;;;;;;5530370;25;19997;-79
2024/04/09 06:06:19;;;;;;;4.13;0.50;;;11.40;99.90;;;;;;5530731;25;20001;-80
2024/04/09 06:08:45;;;;;;;5.65;0.55;;;;;;;;;;5531470;25;20005;-80
2024/04/09 06:11:10;;;;;;;6.65;0.22;;;11.40;99.90;;;;;;5530118;26;19998;-80
2024/04/09 06:13:38;;;;;;;6.03;0.43;;;11.40;99.90;;;;;;5530616;25;19994;-80
2024/04/09 06:16:04;;;;;;;3.72;0.20;;;11.40;99.90;;;;;;5530484;25;20457;-80
2024/04/09 06:18:30;;;;;;;3.95;0.55;;;11.40;99.90;;;;;;5530854;26;20002;-79
2024/04/09 06:20:55;;;;;;;2.05;0.05;;;11.40;99.90;;;;;;5533709;25;19994;-80
2024/04/09 06:23:22;;;;;;;6.85;0.57;;;11.50;99.90;;;;;;5532362;26;20018;-80
2024/04/09 06:25:58;;;;;;;12.10;0.35;;;11.50;99.90;;;;;;5534592;25;20012;-80
2024/04/09 06:28:23;;;;;;;6.90;0.30;;;11.50;99.90;;;;;;5534503;25;20008;-80
2024/04/09 06:30:49;;;;;;;5.30;0.52;;;;;;;;;;5534176;25;20010;-80
2024/04/09 06:33:15;;;;;;;3.72;0.25;;;11.50;99.90;;;;;;5532819;26;20024;-80
2024/04/09 06:35:40;;;;;;;7.50;1.30;;;11.60;99.90;;;;;;5535557;25;20123;-80
2024/04/09 06:38:06;;;;;;;3.70;0.20;;;11.60;99.90;;;;;;5534498;25;20043;-80
2024/04/09 06:40:32;;;;;;;5.78;0.95;;;11.60;99.90;;;;;;5536276;25;20004;-80
2024/04/09 06:42:58;;;;;;;3.47;0.35;;;11.60;99.90;;;;;;5534009;26;20332;-80
2024/04/09 06:45:24;;;;;;;3.80;0.32;;;11.70;99.90;;;;;;5534442;25;20005;-80
2024/04/09 06:47:50;;;;;;;5.40;0.65;;;11.80;99.90;;;;;;5534913;26;20029;-81
2024/04/09 06:50:16;;;;;;;5.32;1.10;;;11.80;99.90;;;;;;5534668;25;20005;-80
2024/04/09 06:52:42;;;;;;;6.03;0.73;;;11.90;99.90;;;;;;5535659;25;20004;-80
2024/04/09 06:55:08;;;;;;;4.85;0.52;;;11.90;99.90;;;;;;5533473;25;19997;-81
2024/04/09 06:57:34;;;;;;;2.17;0.30;;;12.00;99.90;;;;;;5533319;25;20004;-81
2024/04/09 07:00:00;;;;;;;3.78;0.43;;;12.10;99.90;;;;;;5536185;25;19998;-80
2024/04/09 07:02:26;;;;;;;8.25;1.00;;;12.10;99.90;;;;;;5535196;25;19993;-80
2024/04/09 07:04:52;;;;;;;6.38;0.10;;;;;;;;;;5535895;25;20001;-80
2024/04/09 07:07:18;;;;;;;4.88;0.15;;;12.10;99.90;;;;;;5533556;26;19993;-80
2024/04/09 07:09:43;;;;;;;1.95;0.00;;;12.00;99.90;;;;;;5536258;25;20008;-80
2024/04/09 07:12:12;;;;;;;6.20;0.32;;;;;;;;;;5535873;25;19998;-81
2024/04/09 07:14:39;;;;;;;2.67;0.00;;;;;;;;;;5536125;25;19994;-81
2024/04/09 07:17:05;;;;;;;0.55;0.00;;;;;;;;;;5536028;26;19993;-81
2024/04/09 07:19:31;;;;;;;3.00;0.00;;;;;;;;;;5538114;26;20528;-80
2024/04/09 07:21:56;;;;;;;1.38;0.00;;;12.30;99.90;;;;;;5536367;26;20004;-80
2024/04/09 07:24:22;;;;;;;1.20;0.15;;;12.30;99.90;;;;;;5535393;26;20001;-80
2024/04/09 07:26:51;;;;;;;2.65;0.00;;;;;;;;;;5536238;25;20445;-80
2024/04/09 07:29:19;;;;;;;2.63;0.57;;;12.30;99.90;;;;;;5536513;26;20500;-80
2024/04/09 07:31:45;;;;;;;3.50;0.00;;;12.30;99.90;;;;;;5534619;25;19990;-80
2024/04/09 07:34:11;;;;;;;2.92;0.25;;;;;;;;;;5537236;25;20008;-80
2024/04/09 07:36:37;;;;;;;5.03;0.75;;;12.30;99.90;;;;;;5534565;26;19993;-80
2024/04/09 07:39:03;;;;;;;0.88;0.00;;;12.30;99.90;;;;;;5534082;26;20328;-81
2024/04/09 07:41:29;;;;;;;2.15;0.10;;;12.20;99.90;;;;;;5532949;25;20021;-80
2024/04/09 07:43:55;;;;;;;0.47;0.20;;;12.20;99.90;;;;;;5535178;25;20004;-80
2024/04/09 07:46:21;;;;;;;2.78;0.00;;;12.00;99.90;;;;;;5534450;26;20348;-80
2024/04/09 07:48:48;;;;;;;4.10;0.08;;;12.00;99.90;;;;;;5532824;25;20026;-80
2024/04/09 07:51:14;;;;;;;0.47;0.10;;;12.00;99.90;;;;;;5533197;25;19993;-80
2024/04/09 07:53:39;;;;;;;1.05;0.22;;;12.10;99.90;;;;;;5535315;25;20354;-80
2024/04/09 07:56:06;;;;;;;2.13;0.20;;;12.20;99.90;;;;;;5533372;25;20042;-80
2024/04/09 07:58:31;;;;;;;1.25;0.00;;;12.10;99.90;;;;;;5532927;25;19997;-80
2024/04/09 08:00:57;;;;;;;4.57;0.40;;;12.20;99.90;;;;;;5533598;25;20349;-80
2024/04/09 08:03:23;;;;;;;6.65;0.00;;;12.10;99.90;;;;;;5533485;25;20001;-80
2024/04/09 08:05:49;;;;;;;1.65;0.00;;;12.20;99.90;;;;;;5533289;26;19989;-80
2024/04/09 08:08:14;;;;;;;10.85;0.57;;;12.30;99.90;;;;;;5533727;25;19993;-80
2024/04/09 08:10:43;;;;;;;2.20;0.15;;;12.40;99.90;;;;;;5533532;25;20011;-81
2024/04/09 08:13:10;;;;;;;;;;;12.70;99.90;;;;;;5536601;25;20005;-80
2024/04/09 08:15:36;;;;;;;4.18;0.00;;;12.80;99.90;;;;;;5535010;25;19927;-81
2024/04/09 08:18:02;;;;;;;4.20;0.30;;;12.60;99.90;;;;;;5533470;26;20000;-81
2024/04/09 08:20:28;;;;;;;1.88;0.00;;;12.30;99.90;;;;;;5533751;26;19993;-80
2024/04/09 08:22:54;;;;;;;1.08;0.00;;;12.00;99.90;;;;;;5534915;25;19990;-80
2024/04/09 08:25:20;;;;;;;1.42;0.00;;;12.00;99.90;;;;;;5534055;25;19989;-80
2024/04/09 08:27:46;;;;;;;0.30;0.00;;;11.90;99.90;;;;;;5535201;25;19989;-80
2024/04/09 08:30:17;;;;;;;0.65;0.00;;;11.80;99.90;;;;;;5533522;25;19989;-80
2024/04/09 08:32:44;;;;;;;1.77;0.00;;;11.70;99.90;;;;;;5535529;25;19993;-80
2024/04/09 08:35:16;;;;;;;1.48;0.00;;;11.90;99.90;;;;;;5534941;25;20419;-80
2024/04/09 08:37:44;;;;;;;4.55;0.13;;;12.10;99.90;;;;;;5535552;25;20038;-80
2024/04/09 08:40:10;;;;;;;2.50;0.22;;;12.10;99.90;;;;;;5534709;25;19993;-80
2024/04/09 08:42:38;;;;;;;0.57;0.00;;;12.10;99.90;;;;;;5533536;25;19993;-80
2024/04/09 08:45:12;;;;;;;1.85;0.10;;;12.00;99.90;;;;;;5535543;25;19997;-80
2024/04/09 08:47:38;;;;;;;0.38;0.00;;;12.00;99.90;;;;;;5534052;25;19993;-80
2024/04/09 08:50:04;;;;;;;6.18;0.00;;;12.00;99.90;;;;;;5534258;26;19989;-80
2024/04/09 08:52:32;;;;;;;0.47;0.00;;;12.10;99.90;;;;;;5535446;25;20005;-80
2024/04/09 08:54:58;;;;;;;3.00;0.20;;;12.10;99.90;;;;;;5534127;26;20005;-80
2024/04/09 08:57:23;;;;;;;2.92;0.00;;;11.80;99.90;;;;;;5533858;26;19994;-80
2024/04/09 08:59:49;;;;;;;0.90;0.00;;;11.90;99.90;;;;;;5535812;25;19993;-80
2024/04/09 09:02:16;;;;;;;2.53;0.00;;;11.90;99.90;;;;;;5533372;25;20004;-79
2024/04/09 09:04:46;;;;;;;1.58;0.00;;;11.90;99.90;;;;;;5533564;25;20004;-80
2024/04/09 09:07:15;;;;;;;2.67;0.10;;;11.90;99.90;;;;;;5533245;26;20049;-80
2024/04/09 09:09:42;;;;;;;3.90;0.13;;;12.00;99.90;;;;;;5535113;25;20008;-80
2024/04/09 09:12:11;;;;;;;3.88;0.25;;;12.00;99.90;;;;;;5535122;25;20442;-80
2024/04/09 09:14:37;;;;;;;3.10;0.00;;;11.90;99.90;;;;;;5535202;25;20445;-81
2024/04/09 09:17:09;;;;;;;2.00;0.00;;;11.80;99.90;;;;;;5534816;25;19993;-81
2024/04/09 09:19:36;;;;;;;1.08;0.03;;;11.90;99.90;;;;;;5533504;26;20333;-81
2024/04/09 09:22:09;;;;;;;1.75;0.00;;;11.90;99.90;;;;;;5536018;25;20004;-80
2024/04/09 09:24:36;;;;;;;0.28;0.00;;;12.00;99.90;;;;;;5533862;26;19994;-81
2024/04/09 09:27:10;;;;;;;2.60;0.00;;;11.90;99.90;;;;;;5535771;25;19997;-81
2024/04/09 09:29:37;;;;;;;1.27;0.10;;;11.90;99.90;;;;;;5535816;25;20407;-80
2024/04/09 09:32:13;;;;;;;1.17;0.10;;;11.90;99.90;;;;;;5534910;25;20002;-80
2024/04/09 09:34:43;;;;;;;2.05;0.00;;;12.00;99.90;;;;;;5534311;25;19997;-80
2024/04/09 09:37:11;;;;;;;2.85;0.00;;;12.20;99.90;;;;;;5532901;26;20437;-81
2024/04/09 09:39:41;;;;;;;0.25;0.00;;;12.30;99.90;;;;;;5532739;25;20006;-81
2024/04/09 09:42:13;;;;;;;2.30;0.00;;;12.30;99.90;;;;;;5532640;25;20002;-81
2024/04/09 09:44:42;;;;;;;1.73;0.20;;;12.40;99.90;;;;;;5534367;25;20009;-81
2024/04/09 09:47:08;;;;;;;2.08;0.00;;;12.40;99.90;;;;;;5534943;25;20000;-81
2024/04/09 09:49:35;;;;;;;0.55;0.00;;;12.40;99.90;;;;;;5534594;25;19994;-80
2024/04/09 09:52:02;;;;;;;2.83;0.00;;;12.40;99.90;;;;;;5535584;25;20022;-81
2024/04/09 09:54:28;;;;;;;2.28;0.10;;;12.30;99.90;;;;;;5536749;25;19990;-81
2024/04/09 09:57:11;;;;;;;0.80;0.00;;;12.40;99.90;;;;;;5537106;26;20004;-80
2024/04/09 09:59:57;;;;;;;0.30;0.00;;;12.40;99.90;;;;;;5536363;25;19993;-81
2024/04/09 10:02:27;;;;;;;1.48;0.20;;;12.40;99.90;;;;;;5538991;25;20001;-80
2024/04/09 10:04:55;;;;;;;1.40;0.00;;;12.30;99.90;;;;;;5537553;25;19997;-80
2024/04/09 10:07:23;;;;;;;0.13;0.00;;;12.30;99.90;;;;;;5536194;25;20000;-80
2024/04/09 10:09:53;;;;;;;0.70;0.00;;;12.40;99.90;;;;;;5537149;25;20004;-81
2024/04/09 10:12:29;;;;;;;2.80;0.00;;;12.50;99.90;;;;;;5535811;25;20039;-81
2024/04/09 10:14:58;;;;;;;4.55;0.38;;;;;;;;;;5537454;25;20005;-81
2024/04/09 10:17:53;;;;;;;0.40;0.00;;;12.60;99.90;;;;;;5536026;26;20004;-80
2024/04/09 10:20:22;;;;;;;1.73;0.10;;;12.80;99.90;;;;;;5536733;26;20004;-80
2024/04/09 10:22:48;;;;;;;2.13;0.52;;;12.80;99.90;;;;;;5535389;26;20043;-80
2024/04/09 10:25:22;;;;;;;0.55;0.13;;;12.80;99.90;;;;;;5535953;25;20004;-81
2024/04/09 10:28:08;;;;;;;2.80;0.00;;;12.80;99.90;;;;;;5535295;25;20008;-80
2024/04/09 10:30:37;;;;;;;3.58;0.00;;;13.00;99.90;;;;;;5534743;26;19996;-80
2024/04/09 10:33:06;;;;;;;;;;;13.00;99.90;;;;;;5536681;26;19989;-81
2024/04/09 10:35:33;;;;;;;3.67;0.45;;;13.20;99.90;;;;;;5537436;25;19930;-81
2024/04/09 10:38:06;;;;;;;4.80;0.00;;;13.40;99.90;;;;;;5534966;25;20042;-80
2024/04/09 10:40:36;;;;;;;1.67;0.00;;;13.30;99.90;;;;;;5536998;25;20002;-81
2024/04/09 10:43:06;;;;;;;2.70;0.28;;;13.30;99.90;;;;;;5534815;26;19998;-80
2024/04/09 10:45:32;;;;;;;1.17;0.00;;;13.30;99.90;;;;;;5534767;25;19997;-81
2024/04/09 10:48:00;;;;;;;1.15;0.00;;;13.20;99.90;;;;;;5537638;25;19994;-81
2024/04/09 10:50:26;;;;;;;0.40;0.05;;;13.20;99.90;;;;;;5535768;25;20000;-81
2024/04/09 10:52:52;;;;;;;3.30;0.00;;;13.20;99.90;;;;;;5535221;25;20449;-81
2024/04/09 10:55:18;;;;;;;4.72;0.00;;;13.30;99.90;;;;;;5535450;26;20046;-81
2024/04/09 10:57:51;;;;;;;0.95;0.00;;;13.40;99.90;;;;;;5532584;26;19994;-77
2024/04/09 11:00:17;;;;;;;0.25;0.00;;;13.40;99.90;;;;;;5533065;25;20421;-77
2024/04/09 11:02:43;;;;;;;10.20;0.08;;;13.30;99.90;;;;;;5532935;25;19993;-77
2024/04/09 11:05:10;;;;;;;4.15;0.00;;;13.50;99.90;;;;;;5531786;25;20496;-78
2024/04/09 11:07:37;;;;;;;1.98;0.00;;;13.40;99.90;;;;;;5530873;25;19994;-77
2024/04/09 11:10:04;;;;;;;4.88;0.00;;;13.10;99.90;;;;;;5533665;25;19993;-77
2024/04/09 11:12:31;;;;;;;0.40;0.05;;;13.00;99.90;;;;;;5531928;26;20131;-77
2024/04/09 11:14:58;;;;;;;1.55;0.00;;;13.10;99.90;;;;;;5532921;25;19994;-77
2024/04/09 11:17:24;;;;;;;2.50;0.00;;;13.10;99.90;;;;;;5530158;25;19993;-77
2024/04/09 11:19:50;;;;;;;1.58;0.00;;;13.00;99.90;;;;;;5531140;25;20000;-78
2024/04/09 11:22:16;;;;;;;3.05;0.55;;;13.00;99.90;;;;;;5531412;25;20440;-78
2024/04/09 11:24:43;;;;;;;3.25;0.10;;;12.80;99.90;;;;;;5530043;25;20064;-77
2024/04/09 11:27:09;;;;;;;2.75;0.10;;;12.70;99.90;;;;;;5528648;26;20005;-77
2024/04/09 11:29:36;;;;;;;2.38;0.10;;;12.70;99.90;;;;;;5529189;25;19993;-77
2024/04/09 11:32:02;;;;;;;4.70;0.00;;;12.60;99.90;;;;;;5530716;25;20466;-77
2024/04/09 11:34:30;;;;;;;1.00;0.00;;;12.60;99.90;;;;;;5530255;25;20445;-77
2024/04/09 11:36:56;;;;;;;1.70;0.00;;;12.80;99.90;;;;;;5528972;26;20004;-77
2024/04/09 11:39:23;;;;;;;2.47;0.00;;;12.70;99.90;;;;;;5529884;25;19994;-77
2024/04/09 11:41:49;;;;;;;2.88;0.00;;;12.90;99.90;;;;;;5529759;25;20007;-75
2024/04/09 11:44:23;;;;;;;5.30;0.60;;;13.10;99.90;;;;;;5527421;25;19990;-76
2024/04/09 11:46:49;;;;;;;0.35;0.10;;;13.10;99.90;;;;;;5527541;26;19993;-76
2024/04/09 11:49:15;;;;;;;4.13;0.00;;;13.20;99.90;;;;;;5529678;25;20328;-76
2024/04/09 11:51:41;;;;;;;2.22;0.00;;;13.20;99.90;;;;;;5529212;25;20005;-76
2024/04/09 11:54:07;;;;;;;2.33;0.22;;;13.10;99.90;;;;;;5529373;26;20004;-76
2024/04/09 11:56:38;;;;;;;3.58;0.10;;;13.10;99.90;;;;;;5528962;25;19993;-76
2024/04/09 11:59:06;;;;;;;5.32;0.63;;;13.10;99.90;;;;;;5529304;25;19997;-76
2024/04/09 12:01:32;;;;;;;1.95;0.10;;;12.90;99.90;;;;;;5528713;25;19998;-76
2024/04/09 12:03:58;;;;;;;1.70;0.25;;;12.80;99.90;;;;;;5528783;25;19993;-75
2024/04/09 12:06:23;;;;;;;0.82;0.00;;;12.60;99.90;;;;;;5527031;26;20326;-76
2024/04/09 12:08:49;;;;;;;0.63;0.00;;;12.60;99.90;;;;;;5526514;26;20004;-76
2024/04/09 12:11:15;;;;;;;3.33;0.00;;;12.60;99.90;;;;;;5526663;25;19990;-76
2024/04/09 12:13:41;;;;;;;0.65;0.00;;;12.50;99.90;;;;;;5528466;25;19993;-76
2024/04/09 12:16:11;;;;;;;1.55;0.00;;;12.40;99.90;;;;;;5528651;25;19997;-76
2024/04/09 12:18:37;;;;;;;0.25;0.00;;;12.40;99.90;;;;;;5526884;26;20532;-76
2024/04/09 12:21:03;;;;;;;2.13;0.03;;;12.40;99.90;;;;;;5528947;25;20005;-76
2024/04/09 12:23:31;;;;;;;1.08;0.00;;;12.50;99.90;;;;;;5526805;25;19993;-76
2024/04/09 12:25:57;;;;;;;3.97;0.17;;;12.50;99.90;;;;;;5526372;26;19993;-76
2024/04/09 12:28:24;;;;;;;3.63;0.32;;;12.40;99.90;;;;;;5528101;25;20432;-76
2024/04/09 12:30:50;;;;;;;0.35;0.00;;;12.40;99.90;;;;;;5526573;25;20050;-76
2024/04/09 12:33:16;;;;;;;1.33;0.00;;;12.40;99.90;;;;;;5529138;25;20009;-76
2024/04/09 12:35:41;;;;;;;0.15;0.10;;;12.40;99.90;;;;;;5529267;25;20002;-76
2024/04/09 12:38:07;;;;;;;3.60;0.10;;;12.40;99.90;;;;;;5528704;25;20008;-77
2024/04/09 12:40:33;;;;;;;0.35;0.00;;;12.40;99.90;;;;;;5528215;25;20032;-76
2024/04/09 12:42:58;;;;;;;2.60;0.13;;;12.30;99.90;;;;;;5526570;26;20065;-76
2024/04/09 12:45:24;;;;;;;4.47;0.00;;;12.30;99.90;;;;;;5526598;25;20444;-76
2024/04/09 12:47:49;;;;;;;0.93;0.10;;;12.40;99.90;;;;;;5526468;25;20041;-76
2024/04/09 12:50:15;;;;;;;2.17;0.00;;;12.40;99.90;;;;;;5526626;25;20004;-76